sensor_id;sensor_type;location;lat;lon;timestamp;P1;durP1;ratioP1;P2;durP2;ratioP2
54139;SDS011;40046;53.254;5.900;2022-08-19T00:01:53;8.73;;;5.78;;
54139;SDS011;40046;53.254;5.900;2022-08-19T00:04:24;9.35;;;5.68;;
54139;SDS011;40046;53.254;5.900;2022-08-19T00:06:53;7.55;;;5.78;;
54139;SDS011;40046;53.254;5.900;2022-08-19T00:09:23;6.90;;;6.20;;
54139;SDS011;40046;53.254;5.900;2022-08-19T00:11:50;7.97;;;6.25;;
54139;SDS011;40046;53.254;5.900;2022-08-19T00:14:21;9.95;;;7.55;;
54139;SDS011;40046;53.254;5.900;2022-08-19T00:16:48;9.23;;;6.25;;
54139;SDS011;40046;53.254;5.900;2022-08-19T00:19:18;9.88;;;6.68;;
54139;SDS011;40046;53.254;5.900;2022-08-19T00:21:44;8.70;;;6.90;;
54139;SDS011;40046;53.254;5.900;2022-08-19T00:24:55;9.07;;;6.40;;
54139;SDS011;40046;53.254;5.900;2022-08-19T00:27:21;7.38;;;5.68;;
54139;SDS011;40046;53.254;5.900;2022-08-19T00:29:49;11.27;;;6.88;;
54139;SDS011;40046;53.254;5.900;2022-08-19T00:32:15;8.50;;;7.05;;
54139;SDS011;40046;53.254;5.900;2022-08-19T00:34:42;8.20;;;6.75;;
54139;SDS011;40046;53.254;5.900;2022-08-19T00:37:09;11.90;;;6.93;;
54139;SDS011;40046;53.254;5.900;2022-08-19T00:39:36;8.95;;;6.38;;
54139;SDS011;40046;53.254;5.900;2022-08-19T00:42:06;9.07;;;6.82;;
54139;SDS011;40046;53.254;5.900;2022-08-19T00:44:34;9.98;;;7.03;;
54139;SDS011;40046;53.254;5.900;2022-08-19T00:47:01;12.20;;;9.07;;
54139;SDS011;40046;53.254;5.900;2022-08-19T00:49:39;14.10;;;8.43;;
54139;SDS011;40046;53.254;5.900;2022-08-19T00:52:14;9.02;;;7.43;;
54139;SDS011;40046;53.254;5.900;2022-08-19T00:54:51;10.88;;;7.55;;
54139;SDS011;40046;53.254;5.900;2022-08-19T00:57:29;9.90;;;7.50;;
54139;SDS011;40046;53.254;5.900;2022-08-19T01:00:00;11.68;;;8.75;;
54139;SDS011;40046;53.254;5.900;2022-08-19T01:02:27;13.00;;;7.60;;
54139;SDS011;40046;53.254;5.900;2022-08-19T01:04:56;11.30;;;7.15;;
54139;SDS011;40046;53.254;5.900;2022-08-19T01:07:24;12.93;;;7.32;;
54139;SDS011;40046;53.254;5.900;2022-08-19T01:09:50;10.52;;;7.95;;
54139;SDS011;40046;53.254;5.900;2022-08-19T01:12:17;10.82;;;7.13;;
54139;SDS011;40046;53.254;5.900;2022-08-19T01:14:47;11.00;;;8.77;;
54139;SDS011;40046;53.254;5.900;2022-08-19T01:17:17;9.00;;;7.40;;
54139;SDS011;40046;53.254;5.900;2022-08-19T01:19:48;8.88;;;7.10;;
54139;SDS011;40046;53.254;5.900;2022-08-19T01:24:53;10.32;;;7.60;;
54139;SDS011;40046;53.254;5.900;2022-08-19T01:27:20;14.40;;;7.47;;
54139;SDS011;40046;53.254;5.900;2022-08-19T01:29:46;9.98;;;7.22;;
54139;SDS011;40046;53.254;5.900;2022-08-19T01:32:14;8.65;;;7.50;;
54139;SDS011;40046;53.254;5.900;2022-08-19T01:34:42;9.40;;;7.80;;
54139;SDS011;40046;53.254;5.900;2022-08-19T01:37:12;10.93;;;7.30;;
54139;SDS011;40046;53.254;5.900;2022-08-19T01:39:39;10.00;;;7.40;;
54139;SDS011;40046;53.254;5.900;2022-08-19T01:42:06;10.35;;;7.18;;
54139;SDS011;40046;53.254;5.900;2022-08-19T01:44:37;10.32;;;7.18;;
54139;SDS011;40046;53.254;5.900;2022-08-19T01:47:07;11.50;;;7.45;;
54139;SDS011;40046;53.254;5.900;2022-08-19T01:49:35;8.80;;;6.75;;
54139;SDS011;40046;53.254;5.900;2022-08-19T01:52:02;8.90;;;7.10;;
54139;SDS011;40046;53.254;5.900;2022-08-19T01:54:30;9.90;;;7.35;;
54139;SDS011;40046;53.254;5.900;2022-08-19T01:57:01;10.32;;;7.43;;
54139;SDS011;40046;53.254;5.900;2022-08-19T01:59:34;9.30;;;7.10;;
54139;SDS011;40046;53.254;5.900;2022-08-19T02:02:03;9.25;;;7.07;;
54139;SDS011;40046;53.254;5.900;2022-08-19T02:04:33;11.38;;;7.78;;
54139;SDS011;40046;53.254;5.900;2022-08-19T02:07:01;14.38;;;8.20;;
54139;SDS011;40046;53.254;5.900;2022-08-19T02:09:27;8.75;;;7.38;;
54139;SDS011;40046;53.254;5.900;2022-08-19T02:11:54;11.57;;;9.02;;
54139;SDS011;40046;53.254;5.900;2022-08-19T02:14:23;9.73;;;7.78;;
54139;SDS011;40046;53.254;5.900;2022-08-19T02:16:52;9.15;;;7.68;;
54139;SDS011;40046;53.254;5.900;2022-08-19T02:19:18;11.25;;;7.80;;
54139;SDS011;40046;53.254;5.900;2022-08-19T02:21:44;8.68;;;7.75;;
54139;SDS011;40046;53.254;5.900;2022-08-19T02:24:11;8.65;;;7.57;;
54139;SDS011;40046;53.254;5.900;2022-08-19T02:26:37;11.43;;;8.45;;
54139;SDS011;40046;53.254;5.900;2022-08-19T02:29:07;11.15;;;8.25;;
54139;SDS011;40046;53.254;5.900;2022-08-19T02:31:34;8.98;;;6.90;;
54139;SDS011;40046;53.254;5.900;2022-08-19T02:34:00;8.98;;;8.00;;
54139;SDS011;40046;53.254;5.900;2022-08-19T02:36:26;9.50;;;7.72;;
54139;SDS011;40046;53.254;5.900;2022-08-19T02:38:56;12.32;;;8.35;;
54139;SDS011;40046;53.254;5.900;2022-08-19T02:41:23;11.73;;;8.52;;
54139;SDS011;40046;53.254;5.900;2022-08-19T02:43:52;9.30;;;7.43;;
54139;SDS011;40046;53.254;5.900;2022-08-19T02:46:21;9.77;;;8.23;;
54139;SDS011;40046;53.254;5.900;2022-08-19T02:48:52;10.93;;;8.55;;
54139;SDS011;40046;53.254;5.900;2022-08-19T02:51:22;11.80;;;8.98;;
54139;SDS011;40046;53.254;5.900;2022-08-19T02:53:51;11.10;;;9.07;;
54139;SDS011;40046;53.254;5.900;2022-08-19T02:56:18;12.48;;;9.45;;
54139;SDS011;40046;53.254;5.900;2022-08-19T02:58:47;14.80;;;9.63;;
54139;SDS011;40046;53.254;5.900;2022-08-19T03:03:55;12.07;;;8.95;;
54139;SDS011;40046;53.254;5.900;2022-08-19T03:06:22;9.27;;;8.20;;
54139;SDS011;40046;53.254;5.900;2022-08-19T03:08:48;11.57;;;8.77;;
54139;SDS011;40046;53.254;5.900;2022-08-19T03:11:26;12.23;;;9.13;;
54139;SDS011;40046;53.254;5.900;2022-08-19T03:13:55;11.93;;;10.02;;
54139;SDS011;40046;53.254;5.900;2022-08-19T03:16:23;15.35;;;10.15;;
54139;SDS011;40046;53.254;5.900;2022-08-19T03:18:51;10.43;;;9.00;;
54139;SDS011;40046;53.254;5.900;2022-08-19T03:21:19;12.05;;;10.65;;
54139;SDS011;40046;53.254;5.900;2022-08-19T03:23:49;14.70;;;9.32;;
54139;SDS011;40046;53.254;5.900;2022-08-19T03:26:15;10.30;;;8.55;;
54139;SDS011;40046;53.254;5.900;2022-08-19T03:28:42;13.18;;;9.80;;
54139;SDS011;40046;53.254;5.900;2022-08-19T03:31:16;14.18;;;9.25;;
54139;SDS011;40046;53.254;5.900;2022-08-19T03:33:44;14.13;;;9.13;;
54139;SDS011;40046;53.254;5.900;2022-08-19T03:36:15;11.80;;;8.63;;
54139;SDS011;40046;53.254;5.900;2022-08-19T03:38:48;12.70;;;9.05;;
54139;SDS011;40046;53.254;5.900;2022-08-19T03:41:21;11.05;;;8.73;;
54139;SDS011;40046;53.254;5.900;2022-08-19T03:43:48;12.23;;;9.20;;
54139;SDS011;40046;53.254;5.900;2022-08-19T03:46:28;10.25;;;8.88;;
54139;SDS011;40046;53.254;5.900;2022-08-19T03:48:55;13.88;;;9.52;;
54139;SDS011;40046;53.254;5.900;2022-08-19T03:51:32;11.30;;;9.40;;
54139;SDS011;40046;53.254;5.900;2022-08-19T03:54:01;12.38;;;8.88;;
54139;SDS011;40046;53.254;5.900;2022-08-19T03:56:29;15.98;;;8.68;;
54139;SDS011;40046;53.254;5.900;2022-08-19T03:58:56;11.18;;;8.63;;
54139;SDS011;40046;53.254;5.900;2022-08-19T04:01:24;11.48;;;8.52;;
54139;SDS011;40046;53.254;5.900;2022-08-19T04:03:52;13.80;;;9.02;;
54139;SDS011;40046;53.254;5.900;2022-08-19T04:06:20;11.60;;;8.60;;
54139;SDS011;40046;53.254;5.900;2022-08-19T04:08:51;13.20;;;9.30;;
54139;SDS011;40046;53.254;5.900;2022-08-19T04:11:20;12.98;;;9.45;;
54139;SDS011;40046;53.254;5.900;2022-08-19T04:13:49;14.32;;;9.50;;
54139;SDS011;40046;53.254;5.900;2022-08-19T04:16:17;10.93;;;8.93;;
54139;SDS011;40046;53.254;5.900;2022-08-19T04:18:45;14.80;;;9.15;;
54139;SDS011;40046;53.254;5.900;2022-08-19T04:21:15;12.20;;;9.30;;
54139;SDS011;40046;53.254;5.900;2022-08-19T04:23:45;12.82;;;9.90;;
54139;SDS011;40046;53.254;5.900;2022-08-19T04:26:15;12.77;;;8.90;;
54139;SDS011;40046;53.254;5.900;2022-08-19T04:28:46;13.40;;;10.10;;
54139;SDS011;40046;53.254;5.900;2022-08-19T04:31:16;13.40;;;9.90;;
54139;SDS011;40046;53.254;5.900;2022-08-19T04:33:47;10.07;;;8.98;;
54139;SDS011;40046;53.254;5.900;2022-08-19T04:36:26;13.43;;;9.02;;
54139;SDS011;40046;53.254;5.900;2022-08-19T04:38:58;11.73;;;9.73;;
54139;SDS011;40046;53.254;5.900;2022-08-19T04:41:27;14.68;;;10.07;;
54139;SDS011;40046;53.254;5.900;2022-08-19T04:44:12;12.82;;;9.10;;
54139;SDS011;40046;53.254;5.900;2022-08-19T04:46:38;12.52;;;10.60;;
54139;SDS011;40046;53.254;5.900;2022-08-19T04:49:05;10.73;;;9.52;;
54139;SDS011;40046;53.254;5.900;2022-08-19T04:51:32;11.85;;;9.80;;
54139;SDS011;40046;53.254;5.900;2022-08-19T04:53:58;15.65;;;10.32;;
54139;SDS011;40046;53.254;5.900;2022-08-19T04:56:25;16.90;;;10.23;;
54139;SDS011;40046;53.254;5.900;2022-08-19T04:58:52;13.98;;;10.10;;
54139;SDS011;40046;53.254;5.900;2022-08-19T05:01:21;16.25;;;12.20;;
54139;SDS011;40046;53.254;5.900;2022-08-19T05:03:49;15.40;;;11.05;;
54139;SDS011;40046;53.254;5.900;2022-08-19T05:06:16;13.95;;;10.25;;
54139;SDS011;40046;53.254;5.900;2022-08-19T05:08:44;14.80;;;11.27;;
54139;SDS011;40046;53.254;5.900;2022-08-19T05:11:12;16.27;;;10.57;;
54139;SDS011;40046;53.254;5.900;2022-08-19T05:13:43;15.73;;;11.70;;
54139;SDS011;40046;53.254;5.900;2022-08-19T05:16:10;17.45;;;11.85;;
54139;SDS011;40046;53.254;5.900;2022-08-19T05:18:38;13.68;;;10.70;;
54139;SDS011;40046;53.254;5.900;2022-08-19T05:21:23;17.92;;;11.25;;
54139;SDS011;40046;53.254;5.900;2022-08-19T05:24:08;13.80;;;10.45;;
54139;SDS011;40046;53.254;5.900;2022-08-19T05:26:36;15.25;;;10.73;;
54139;SDS011;40046;53.254;5.900;2022-08-19T05:29:03;19.17;;;11.75;;
54139;SDS011;40046;53.254;5.900;2022-08-19T05:31:29;14.00;;;10.88;;
54139;SDS011;40046;53.254;5.900;2022-08-19T05:33:56;13.68;;;10.50;;
54139;SDS011;40046;53.254;5.900;2022-08-19T05:36:24;12.65;;;9.80;;
54139;SDS011;40046;53.254;5.900;2022-08-19T05:38:51;15.00;;;11.82;;
54139;SDS011;40046;53.254;5.900;2022-08-19T05:41:18;17.15;;;11.35;;
54139;SDS011;40046;53.254;5.900;2022-08-19T05:43:45;15.90;;;11.68;;
54139;SDS011;40046;53.254;5.900;2022-08-19T05:46:18;15.43;;;12.23;;
54139;SDS011;40046;53.254;5.900;2022-08-19T05:48:44;15.32;;;12.55;;
54139;SDS011;40046;53.254;5.900;2022-08-19T05:51:11;13.95;;;11.70;;
54139;SDS011;40046;53.254;5.900;2022-08-19T05:53:37;16.48;;;12.25;;
54139;SDS011;40046;53.254;5.900;2022-08-19T05:56:06;15.70;;;12.45;;
54139;SDS011;40046;53.254;5.900;2022-08-19T05:58:35;17.35;;;12.75;;
54139;SDS011;40046;53.254;5.900;2022-08-19T06:01:02;13.95;;;12.25;;
54139;SDS011;40046;53.254;5.900;2022-08-19T06:03:36;17.17;;;13.02;;
54139;SDS011;40046;53.254;5.900;2022-08-19T06:06:05;15.60;;;12.18;;
54139;SDS011;40046;53.254;5.900;2022-08-19T06:08:36;16.80;;;12.98;;
54139;SDS011;40046;53.254;5.900;2022-08-19T06:11:16;13.85;;;12.35;;
54139;SDS011;40046;53.254;5.900;2022-08-19T06:13:43;15.13;;;12.70;;
54139;SDS011;40046;53.254;5.900;2022-08-19T06:16:12;16.35;;;13.32;;
54139;SDS011;40046;53.254;5.900;2022-08-19T06:18:38;17.60;;;13.15;;
54139;SDS011;40046;53.254;5.900;2022-08-19T06:21:04;16.20;;;12.75;;
54139;SDS011;40046;53.254;5.900;2022-08-19T06:23:30;18.27;;;13.48;;
54139;SDS011;40046;53.254;5.900;2022-08-19T06:25:56;19.02;;;13.35;;
54139;SDS011;40046;53.254;5.900;2022-08-19T06:28:21;15.75;;;13.38;;
54139;SDS011;40046;53.254;5.900;2022-08-19T06:30:49;19.73;;;14.05;;
54139;SDS011;40046;53.254;5.900;2022-08-19T06:33:16;15.05;;;12.40;;
54139;SDS011;40046;53.254;5.900;2022-08-19T06:35:42;16.65;;;14.48;;
54139;SDS011;40046;53.254;5.900;2022-08-19T06:38:07;18.00;;;12.90;;
54139;SDS011;40046;53.254;5.900;2022-08-19T06:40:34;15.25;;;12.85;;
54139;SDS011;40046;53.254;5.900;2022-08-19T06:43:02;15.52;;;13.27;;
54139;SDS011;40046;53.254;5.900;2022-08-19T06:45:28;20.58;;;15.00;;
54139;SDS011;40046;53.254;5.900;2022-08-19T06:47:55;16.80;;;12.82;;
54139;SDS011;40046;53.254;5.900;2022-08-19T06:50:22;16.48;;;14.77;;
54139;SDS011;40046;53.254;5.900;2022-08-19T06:52:48;16.30;;;14.27;;
54139;SDS011;40046;53.254;5.900;2022-08-19T06:55:14;15.27;;;12.80;;
54139;SDS011;40046;53.254;5.900;2022-08-19T06:57:41;16.10;;;14.25;;
54139;SDS011;40046;53.254;5.900;2022-08-19T07:00:07;15.27;;;13.30;;
54139;SDS011;40046;53.254;5.900;2022-08-19T07:02:40;17.63;;;13.27;;
54139;SDS011;40046;53.254;5.900;2022-08-19T07:05:06;17.83;;;14.65;;
54139;SDS011;40046;53.254;5.900;2022-08-19T07:07:32;15.43;;;13.85;;
54139;SDS011;40046;53.254;5.900;2022-08-19T07:09:59;13.73;;;12.00;;
54139;SDS011;40046;53.254;5.900;2022-08-19T07:12:24;13.45;;;12.13;;
54139;SDS011;40046;53.254;5.900;2022-08-19T07:14:52;15.75;;;11.40;;
54139;SDS011;40046;53.254;5.900;2022-08-19T07:17:18;15.35;;;13.40;;
54139;SDS011;40046;53.254;5.900;2022-08-19T07:19:45;15.48;;;13.88;;
54139;SDS011;40046;53.254;5.900;2022-08-19T07:22:11;14.23;;;12.73;;
54139;SDS011;40046;53.254;5.900;2022-08-19T07:24:37;14.48;;;12.93;;
54139;SDS011;40046;53.254;5.900;2022-08-19T07:27:04;14.48;;;12.95;;
54139;SDS011;40046;53.254;5.900;2022-08-19T07:29:31;17.15;;;14.45;;
54139;SDS011;40046;53.254;5.900;2022-08-19T07:31:59;15.95;;;14.25;;
54139;SDS011;40046;53.254;5.900;2022-08-19T07:34:26;17.92;;;15.50;;
54139;SDS011;40046;53.254;5.900;2022-08-19T07:36:54;14.93;;;12.85;;
54139;SDS011;40046;53.254;5.900;2022-08-19T07:39:22;14.88;;;13.25;;
54139;SDS011;40046;53.254;5.900;2022-08-19T07:41:50;17.40;;;14.30;;
54139;SDS011;40046;53.254;5.900;2022-08-19T07:44:17;15.60;;;13.45;;
54139;SDS011;40046;53.254;5.900;2022-08-19T07:46:46;15.02;;;13.43;;
54139;SDS011;40046;53.254;5.900;2022-08-19T07:49:15;14.10;;;12.60;;
54139;SDS011;40046;53.254;5.900;2022-08-19T07:51:49;16.85;;;15.05;;
54139;SDS011;40046;53.254;5.900;2022-08-19T07:54:17;15.27;;;11.45;;
54139;SDS011;40046;53.254;5.900;2022-08-19T07:56:44;13.82;;;12.38;;
54139;SDS011;40046;53.254;5.900;2022-08-19T07:59:10;16.90;;;14.27;;
54139;SDS011;40046;53.254;5.900;2022-08-19T08:01:36;18.38;;;16.30;;
54139;SDS011;40046;53.254;5.900;2022-08-19T08:04:05;18.70;;;16.80;;
54139;SDS011;40046;53.254;5.900;2022-08-19T08:06:50;19.13;;;17.33;;
54139;SDS011;40046;53.254;5.900;2022-08-19T08:09:37;22.60;;;18.88;;
54139;SDS011;40046;53.254;5.900;2022-08-19T08:12:06;20.83;;;18.63;;
54139;SDS011;40046;53.254;5.900;2022-08-19T08:14:40;20.48;;;17.42;;
54139;SDS011;40046;53.254;5.900;2022-08-19T08:17:09;23.40;;;18.00;;
54139;SDS011;40046;53.254;5.900;2022-08-19T08:19:35;24.30;;;19.92;;
54139;SDS011;40046;53.254;5.900;2022-08-19T08:22:03;20.48;;;18.38;;
54139;SDS011;40046;53.254;5.900;2022-08-19T08:24:31;22.40;;;19.95;;
54139;SDS011;40046;53.254;5.900;2022-08-19T08:26:58;18.20;;;14.95;;
54139;SDS011;40046;53.254;5.900;2022-08-19T08:29:25;15.57;;;13.90;;
54139;SDS011;40046;53.254;5.900;2022-08-19T08:31:55;20.30;;;17.70;;
54139;SDS011;40046;53.254;5.900;2022-08-19T08:34:21;21.90;;;19.67;;
54139;SDS011;40046;53.254;5.900;2022-08-19T08:36:47;23.52;;;21.00;;
54139;SDS011;40046;53.254;5.900;2022-08-19T08:39:15;19.90;;;17.85;;
54139;SDS011;40046;53.254;5.900;2022-08-19T08:47:32;24.20;;;18.60;;
54139;SDS011;40046;53.254;5.900;2022-08-19T08:50:07;19.77;;;17.50;;
54139;SDS011;40046;53.254;5.900;2022-08-19T08:52:39;22.98;;;20.58;;
54139;SDS011;40046;53.254;5.900;2022-08-19T08:55:11;12.43;;;11.10;;
54139;SDS011;40046;53.254;5.900;2022-08-19T09:00:28;25.90;;;22.83;;
54139;SDS011;40046;53.254;5.900;2022-08-19T09:02:55;26.23;;;22.10;;
54139;SDS011;40046;53.254;5.900;2022-08-19T09:05:22;25.55;;;22.90;;
54139;SDS011;40046;53.254;5.900;2022-08-19T09:08:08;24.48;;;21.88;;
54139;SDS011;40046;53.254;5.900;2022-08-19T09:10:59;22.90;;;20.42;;
54139;SDS011;40046;53.254;5.900;2022-08-19T09:16:37;25.73;;;21.13;;
54139;SDS011;40046;53.254;5.900;2022-08-19T09:19:06;20.90;;;18.70;;
54139;SDS011;40046;53.254;5.900;2022-08-19T09:21:33;22.55;;;18.73;;
54139;SDS011;40046;53.254;5.900;2022-08-19T09:24:02;20.90;;;17.90;;
54139;SDS011;40046;53.254;5.900;2022-08-19T09:26:29;20.00;;;17.13;;
54139;SDS011;40046;53.254;5.900;2022-08-19T09:28:58;18.80;;;16.17;;
54139;SDS011;40046;53.254;5.900;2022-08-19T09:31:26;19.92;;;17.70;;
54139;SDS011;40046;53.254;5.900;2022-08-19T09:33:53;17.77;;;15.70;;
54139;SDS011;40046;53.254;5.900;2022-08-19T09:36:22;18.13;;;16.20;;
54139;SDS011;40046;53.254;5.900;2022-08-19T09:38:51;16.27;;;14.57;;
54139;SDS011;40046;53.254;5.900;2022-08-19T09:41:19;16.90;;;14.20;;
54139;SDS011;40046;53.254;5.900;2022-08-19T09:43:48;18.15;;;14.52;;
54139;SDS011;40046;53.254;5.900;2022-08-19T09:46:17;17.75;;;15.02;;
54139;SDS011;40046;53.254;5.900;2022-08-19T09:48:52;16.08;;;13.85;;
54139;SDS011;40046;53.254;5.900;2022-08-19T09:51:23;16.63;;;13.80;;
54139;SDS011;40046;53.254;5.900;2022-08-19T09:53:53;13.98;;;12.32;;
54139;SDS011;40046;53.254;5.900;2022-08-19T09:56:20;18.02;;;13.85;;
54139;SDS011;40046;53.254;5.900;2022-08-19T09:58:47;14.65;;;12.45;;
54139;SDS011;40046;53.254;5.900;2022-08-19T10:01:17;17.58;;;12.00;;
54139;SDS011;40046;53.254;5.900;2022-08-19T10:03:47;16.23;;;11.75;;
54139;SDS011;40046;53.254;5.900;2022-08-19T10:06:19;15.27;;;12.63;;
54139;SDS011;40046;53.254;5.900;2022-08-19T10:08:49;15.52;;;12.32;;
54139;SDS011;40046;53.254;5.900;2022-08-19T10:11:18;17.77;;;12.10;;
54139;SDS011;40046;53.254;5.900;2022-08-19T10:13:45;13.88;;;10.93;;
54139;SDS011;40046;53.254;5.900;2022-08-19T10:16:14;13.88;;;12.32;;
54139;SDS011;40046;53.254;5.900;2022-08-19T10:18:43;17.80;;;11.50;;
54139;SDS011;40046;53.254;5.900;2022-08-19T10:21:11;14.93;;;10.90;;
54139;SDS011;40046;53.254;5.900;2022-08-19T10:23:42;15.30;;;12.00;;
54139;SDS011;40046;53.254;5.900;2022-08-19T10:26:11;14.32;;;11.52;;
54139;SDS011;40046;53.254;5.900;2022-08-19T10:28:38;13.52;;;10.30;;
54139;SDS011;40046;53.254;5.900;2022-08-19T10:31:06;11.00;;;9.45;;
54139;SDS011;40046;53.254;5.900;2022-08-19T10:33:34;15.02;;;9.75;;
54139;SDS011;40046;53.254;5.900;2022-08-19T10:36:05;15.75;;;8.82;;
54139;SDS011;40046;53.254;5.900;2022-08-19T10:38:35;14.68;;;9.90;;
54139;SDS011;40046;53.254;5.900;2022-08-19T10:41:06;13.05;;;10.40;;
54139;SDS011;40046;53.254;5.900;2022-08-19T10:43:37;17.02;;;10.82;;
54139;SDS011;40046;53.254;5.900;2022-08-19T10:46:08;12.85;;;9.70;;
54139;SDS011;40046;53.254;5.900;2022-08-19T10:48:36;13.98;;;11.10;;
54139;SDS011;40046;53.254;5.900;2022-08-19T10:51:02;11.95;;;9.85;;
54139;SDS011;40046;53.254;5.900;2022-08-19T10:53:48;12.93;;;9.73;;
54139;SDS011;40046;53.254;5.900;2022-08-19T10:56:14;16.92;;;13.77;;
54139;SDS011;40046;53.254;5.900;2022-08-19T11:01:49;11.65;;;10.05;;
54139;SDS011;40046;53.254;5.900;2022-08-19T11:04:16;12.90;;;9.77;;
54139;SDS011;40046;53.254;5.900;2022-08-19T11:06:43;13.82;;;9.77;;
54139;SDS011;40046;53.254;5.900;2022-08-19T11:09:22;12.35;;;8.80;;
54139;SDS011;40046;53.254;5.900;2022-08-19T11:11:55;12.70;;;8.20;;
54139;SDS011;40046;53.254;5.900;2022-08-19T11:14:21;9.40;;;8.23;;
54139;SDS011;40046;53.254;5.900;2022-08-19T11:16:53;12.35;;;8.23;;
54139;SDS011;40046;53.254;5.900;2022-08-19T11:19:30;10.40;;;7.18;;
54139;SDS011;40046;53.254;5.900;2022-08-19T11:21:56;10.95;;;8.05;;
54139;SDS011;40046;53.254;5.900;2022-08-19T11:24:23;9.82;;;7.07;;
54139;SDS011;40046;53.254;5.900;2022-08-19T11:26:51;15.55;;;9.68;;
54139;SDS011;40046;53.254;5.900;2022-08-19T11:29:21;15.40;;;11.00;;
54139;SDS011;40046;53.254;5.900;2022-08-19T11:31:51;13.32;;;9.25;;
54139;SDS011;40046;53.254;5.900;2022-08-19T11:34:24;12.57;;;9.38;;
54139;SDS011;40046;53.254;5.900;2022-08-19T11:36:53;11.38;;;8.18;;
54139;SDS011;40046;53.254;5.900;2022-08-19T11:39:23;12.88;;;7.30;;
54139;SDS011;40046;53.254;5.900;2022-08-19T11:41:50;10.60;;;7.15;;
54139;SDS011;40046;53.254;5.900;2022-08-19T11:44:16;9.07;;;7.13;;
54139;SDS011;40046;53.254;5.900;2022-08-19T11:46:43;11.35;;;8.05;;
54139;SDS011;40046;53.254;5.900;2022-08-19T11:49:12;14.95;;;7.68;;
54139;SDS011;40046;53.254;5.900;2022-08-19T11:51:43;11.25;;;7.00;;
54139;SDS011;40046;53.254;5.900;2022-08-19T11:54:10;9.07;;;6.50;;
54139;SDS011;40046;53.254;5.900;2022-08-19T11:56:37;12.98;;;7.18;;
54139;SDS011;40046;53.254;5.900;2022-08-19T11:59:04;14.07;;;7.65;;
54139;SDS011;40046;53.254;5.900;2022-08-19T12:01:30;13.07;;;8.75;;
54139;SDS011;40046;53.254;5.900;2022-08-19T12:03:56;11.43;;;7.22;;
54139;SDS011;40046;53.254;5.900;2022-08-19T12:06:23;8.85;;;6.43;;
54139;SDS011;40046;53.254;5.900;2022-08-19T12:08:56;9.88;;;6.35;;
54139;SDS011;40046;53.254;5.900;2022-08-19T12:11:28;11.02;;;7.38;;
54139;SDS011;40046;53.254;5.900;2022-08-19T12:13:54;13.50;;;7.63;;
54139;SDS011;40046;53.254;5.900;2022-08-19T12:16:21;10.43;;;7.88;;
54139;SDS011;40046;53.254;5.900;2022-08-19T12:18:51;11.20;;;7.35;;
54139;SDS011;40046;53.254;5.900;2022-08-19T12:21:19;12.20;;;7.20;;
54139;SDS011;40046;53.254;5.900;2022-08-19T12:23:48;10.60;;;6.05;;
54139;SDS011;40046;53.254;5.900;2022-08-19T12:26:15;9.60;;;6.75;;
54139;SDS011;40046;53.254;5.900;2022-08-19T12:28:42;8.05;;;5.88;;
54139;SDS011;40046;53.254;5.900;2022-08-19T12:31:09;6.10;;;5.15;;
54139;SDS011;40046;53.254;5.900;2022-08-19T12:33:41;7.50;;;6.20;;
54139;SDS011;40046;53.254;5.900;2022-08-19T12:36:09;10.43;;;6.07;;
54139;SDS011;40046;53.254;5.900;2022-08-19T12:38:40;9.48;;;6.50;;
54139;SDS011;40046;53.254;5.900;2022-08-19T12:41:08;13.55;;;6.00;;
54139;SDS011;40046;53.254;5.900;2022-08-19T12:43:37;7.38;;;5.88;;
54139;SDS011;40046;53.254;5.900;2022-08-19T12:46:04;9.05;;;5.47;;
54139;SDS011;40046;53.254;5.900;2022-08-19T12:48:33;9.48;;;6.60;;
54139;SDS011;40046;53.254;5.900;2022-08-19T12:51:00;11.35;;;6.95;;
54139;SDS011;40046;53.254;5.900;2022-08-19T12:53:31;8.73;;;6.20;;
54139;SDS011;40046;53.254;5.900;2022-08-19T12:55:57;12.50;;;7.55;;
54139;SDS011;40046;53.254;5.900;2022-08-19T12:58:25;9.68;;;6.75;;
54139;SDS011;40046;53.254;5.900;2022-08-19T13:00:51;10.82;;;7.35;;
54139;SDS011;40046;53.254;5.900;2022-08-19T13:03:16;11.82;;;5.97;;
54139;SDS011;40046;53.254;5.900;2022-08-19T13:05:42;11.30;;;7.80;;
54139;SDS011;40046;53.254;5.900;2022-08-19T13:08:08;8.40;;;6.82;;
54139;SDS011;40046;53.254;5.900;2022-08-19T13:10:35;11.13;;;7.88;;
54139;SDS011;40046;53.254;5.900;2022-08-19T13:13:02;10.75;;;9.38;;
54139;SDS011;40046;53.254;5.900;2022-08-19T13:15:32;11.98;;;8.30;;
54139;SDS011;40046;53.254;5.900;2022-08-19T13:18:00;14.27;;;9.50;;
54139;SDS011;40046;53.254;5.900;2022-08-19T13:20:26;12.13;;;8.98;;
54139;SDS011;40046;53.254;5.900;2022-08-19T13:22:52;12.85;;;9.35;;
54139;SDS011;40046;53.254;5.900;2022-08-19T13:25:19;10.23;;;7.47;;
54139;SDS011;40046;53.254;5.900;2022-08-19T13:27:47;9.20;;;7.68;;
54139;SDS011;40046;53.254;5.900;2022-08-19T13:30:14;11.27;;;7.63;;
54139;SDS011;40046;53.254;5.900;2022-08-19T13:33:00;10.73;;;7.90;;
54139;SDS011;40046;53.254;5.900;2022-08-19T13:35:49;14.38;;;7.43;;
54139;SDS011;40046;53.254;5.900;2022-08-19T13:38:20;11.50;;;7.70;;
54139;SDS011;40046;53.254;5.900;2022-08-19T13:40:47;11.13;;;8.63;;
54139;SDS011;40046;53.254;5.900;2022-08-19T13:43:15;12.25;;;10.30;;
54139;SDS011;40046;53.254;5.900;2022-08-19T13:45:42;9.80;;;7.50;;
54139;SDS011;40046;53.254;5.900;2022-08-19T13:48:08;9.05;;;6.65;;
54139;SDS011;40046;53.254;5.900;2022-08-19T13:50:39;11.55;;;7.57;;
54139;SDS011;40046;53.254;5.900;2022-08-19T13:53:07;11.15;;;8.90;;
54139;SDS011;40046;53.254;5.900;2022-08-19T13:55:35;6.78;;;5.60;;
54139;SDS011;40046;53.254;5.900;2022-08-19T13:58:06;8.27;;;7.05;;
54139;SDS011;40046;53.254;5.900;2022-08-19T14:00:40;9.23;;;7.65;;
54139;SDS011;40046;53.254;5.900;2022-08-19T14:03:08;10.27;;;7.72;;
54139;SDS011;40046;53.254;5.900;2022-08-19T14:05:34;9.07;;;6.57;;
54139;SDS011;40046;53.254;5.900;2022-08-19T14:08:00;8.57;;;5.80;;
54139;SDS011;40046;53.254;5.900;2022-08-19T14:10:27;10.05;;;7.18;;
54139;SDS011;40046;53.254;5.900;2022-08-19T14:12:56;9.70;;;7.78;;
54139;SDS011;40046;53.254;5.900;2022-08-19T14:15:23;8.27;;;5.88;;
54139;SDS011;40046;53.254;5.900;2022-08-19T14:17:49;9.13;;;6.45;;
54139;SDS011;40046;53.254;5.900;2022-08-19T14:20:15;7.68;;;6.88;;
54139;SDS011;40046;53.254;5.900;2022-08-19T14:22:42;8.40;;;6.72;;
54139;SDS011;40046;53.254;5.900;2022-08-19T14:25:10;7.82;;;6.05;;
54139;SDS011;40046;53.254;5.900;2022-08-19T14:27:39;8.27;;;5.68;;
54139;SDS011;40046;53.254;5.900;2022-08-19T14:30:06;9.35;;;6.00;;
54139;SDS011;40046;53.254;5.900;2022-08-19T14:32:34;7.60;;;5.32;;
54139;SDS011;40046;53.254;5.900;2022-08-19T14:35:01;6.95;;;4.70;;
54139;SDS011;40046;53.254;5.900;2022-08-19T14:37:27;7.55;;;5.05;;
54139;SDS011;40046;53.254;5.900;2022-08-19T14:39:53;8.23;;;5.95;;
54139;SDS011;40046;53.254;5.900;2022-08-19T14:42:19;10.10;;;5.78;;
54139;SDS011;40046;53.254;5.900;2022-08-19T14:44:45;7.28;;;4.93;;
54139;SDS011;40046;53.254;5.900;2022-08-19T14:47:11;7.55;;;4.85;;
54139;SDS011;40046;53.254;5.900;2022-08-19T14:49:37;7.20;;;4.13;;
54139;SDS011;40046;53.254;5.900;2022-08-19T14:52:04;6.35;;;4.15;;
54139;SDS011;40046;53.254;5.900;2022-08-19T14:54:30;5.28;;;3.42;;
54139;SDS011;40046;53.254;5.900;2022-08-19T14:56:56;7.60;;;5.05;;
54139;SDS011;40046;53.254;5.900;2022-08-19T14:59:22;8.07;;;5.65;;
54139;SDS011;40046;53.254;5.900;2022-08-19T15:01:48;6.75;;;5.72;;
54139;SDS011;40046;53.254;5.900;2022-08-19T15:04:14;8.57;;;6.40;;